sensor_id;sensor_type;location;lat;lon;timestamp;P1;durP1;ratioP1;P2;durP2;ratioP2
59830;SDS011;45711;50.108;13.712;2022-07-06T00:01:23;5.20;;;2.45;;
59830;SDS011;45711;50.108;13.712;2022-07-06T00:03:49;8.20;;;2.30;;
59830;SDS011;45711;50.108;13.712;2022-07-06T00:06:14;4.65;;;2.47;;
59830;SDS011;45711;50.108;13.712;2022-07-06T00:08:43;4.75;;;2.50;;
59830;SDS011;45711;50.108;13.712;2022-07-06T00:11:09;5.70;;;2.45;;
59830;SDS011;45711;50.108;13.712;2022-07-06T00:13:35;5.80;;;2.58;;
59830;SDS011;45711;50.108;13.712;2022-07-06T00:16:01;5.95;;;2.80;;
59830;SDS011;45711;50.108;13.712;2022-07-06T00:18:27;3.03;;;2.40;;
59830;SDS011;45711;50.108;13.712;2022-07-06T00:20:52;7.97;;;3.20;;
59830;SDS011;45711;50.108;13.712;2022-07-06T00:23:18;6.18;;;2.70;;
59830;SDS011;45711;50.108;13.712;2022-07-06T00:25:45;6.53;;;3.03;;
59830;SDS011;45711;50.108;13.712;2022-07-06T00:28:10;4.38;;;2.95;;
59830;SDS011;45711;50.108;13.712;2022-07-06T00:30:36;4.68;;;2.83;;
59830;SDS011;45711;50.108;13.712;2022-07-06T00:33:02;10.13;;;2.92;;
59830;SDS011;45711;50.108;13.712;2022-07-06T00:35:28;4.45;;;2.65;;
59830;SDS011;45711;50.108;13.712;2022-07-06T00:37:53;6.55;;;2.80;;
59830;SDS011;45711;50.108;13.712;2022-07-06T00:40:19;11.95;;;2.97;;
59830;SDS011;45711;50.108;13.712;2022-07-06T00:42:46;8.50;;;2.55;;
59830;SDS011;45711;50.108;13.712;2022-07-06T00:45:13;4.07;;;2.63;;
59830;SDS011;45711;50.108;13.712;2022-07-06T00:47:40;8.50;;;2.70;;
59830;SDS011;45711;50.108;13.712;2022-07-06T00:50:07;6.40;;;2.65;;
59830;SDS011;45711;50.108;13.712;2022-07-06T00:52:39;5.25;;;2.88;;
59830;SDS011;45711;50.108;13.712;2022-07-06T00:55:06;11.85;;;3.17;;
59830;SDS011;45711;50.108;13.712;2022-07-06T00:57:32;6.38;;;3.10;;
59830;SDS011;45711;50.108;13.712;2022-07-06T00:59:59;7.65;;;2.70;;
59830;SDS011;45711;50.108;13.712;2022-07-06T01:02:25;4.07;;;3.10;;
59830;SDS011;45711;50.108;13.712;2022-07-06T01:04:50;9.15;;;3.10;;
59830;SDS011;45711;50.108;13.712;2022-07-06T01:07:16;6.50;;;2.92;;
59830;SDS011;45711;50.108;13.712;2022-07-06T01:09:42;4.22;;;2.60;;
59830;SDS011;45711;50.108;13.712;2022-07-06T01:12:09;3.67;;;2.90;;
59830;SDS011;45711;50.108;13.712;2022-07-06T01:14:34;5.90;;;2.80;;
59830;SDS011;45711;50.108;13.712;2022-07-06T01:17:03;5.00;;;2.47;;
59830;SDS011;45711;50.108;13.712;2022-07-06T01:19:29;5.88;;;2.60;;
59830;SDS011;45711;50.108;13.712;2022-07-06T01:21:56;7.22;;;2.70;;
59830;SDS011;45711;50.108;13.712;2022-07-06T01:24:21;6.47;;;2.70;;
59830;SDS011;45711;50.108;13.712;2022-07-06T01:26:47;7.95;;;2.95;;
59830;SDS011;45711;50.108;13.712;2022-07-06T01:29:13;3.22;;;2.20;;
59830;SDS011;45711;50.108;13.712;2022-07-06T01:31:44;7.38;;;2.75;;
59830;SDS011;45711;50.108;13.712;2022-07-06T01:34:12;4.90;;;2.30;;
59830;SDS011;45711;50.108;13.712;2022-07-06T01:36:38;11.13;;;2.63;;
59830;SDS011;45711;50.108;13.712;2022-07-06T01:39:05;9.90;;;2.83;;
59830;SDS011;45711;50.108;13.712;2022-07-06T01:41:33;5.22;;;2.25;;
59830;SDS011;45711;50.108;13.712;2022-07-06T01:43:59;10.73;;;2.60;;
59830;SDS011;45711;50.108;13.712;2022-07-06T01:46:24;4.38;;;2.35;;
59830;SDS011;45711;50.108;13.712;2022-07-06T01:48:50;13.40;;;2.55;;
59830;SDS011;45711;50.108;13.712;2022-07-06T01:51:16;9.98;;;2.53;;
59830;SDS011;45711;50.108;13.712;2022-07-06T01:53:42;17.65;;;2.72;;
59830;SDS011;45711;50.108;13.712;2022-07-06T01:56:09;8.40;;;2.80;;
59830;SDS011;45711;50.108;13.712;2022-07-06T01:58:35;11.23;;;2.90;;
59830;SDS011;45711;50.108;13.712;2022-07-06T02:01:04;7.50;;;3.08;;
59830;SDS011;45711;50.108;13.712;2022-07-06T02:03:32;5.07;;;2.40;;
59830;SDS011;45711;50.108;13.712;2022-07-06T02:05:57;10.18;;;2.88;;
59830;SDS011;45711;50.108;13.712;2022-07-06T02:08:23;8.45;;;2.80;;
59830;SDS011;45711;50.108;13.712;2022-07-06T02:10:49;9.43;;;2.67;;
59830;SDS011;45711;50.108;13.712;2022-07-06T02:13:16;9.40;;;2.70;;
59830;SDS011;45711;50.108;13.712;2022-07-06T02:15:41;8.23;;;2.67;;
59830;SDS011;45711;50.108;13.712;2022-07-06T02:18:07;11.93;;;3.30;;
59830;SDS011;45711;50.108;13.712;2022-07-06T02:20:32;5.18;;;2.40;;
59830;SDS011;45711;50.108;13.712;2022-07-06T02:22:58;10.57;;;3.15;;
59830;SDS011;45711;50.108;13.712;2022-07-06T02:25:24;7.30;;;2.75;;
59830;SDS011;45711;50.108;13.712;2022-07-06T02:27:49;5.53;;;2.60;;
59830;SDS011;45711;50.108;13.712;2022-07-06T02:30:16;4.93;;;2.55;;
59830;SDS011;45711;50.108;13.712;2022-07-06T02:32:42;10.00;;;2.33;;
59830;SDS011;45711;50.108;13.712;2022-07-06T02:35:08;4.82;;;2.30;;
59830;SDS011;45711;50.108;13.712;2022-07-06T02:37:33;10.73;;;3.15;;
59830;SDS011;45711;50.108;13.712;2022-07-06T02:39:59;8.45;;;2.65;;
59830;SDS011;45711;50.108;13.712;2022-07-06T02:42:25;5.60;;;2.45;;
59830;SDS011;45711;50.108;13.712;2022-07-06T02:44:51;13.18;;;2.58;;
59830;SDS011;45711;50.108;13.712;2022-07-06T02:47:19;10.93;;;2.60;;
59830;SDS011;45711;50.108;13.712;2022-07-06T02:49:45;5.78;;;2.45;;
59830;SDS011;45711;50.108;13.712;2022-07-06T02:52:10;4.18;;;2.42;;
59830;SDS011;45711;50.108;13.712;2022-07-06T02:54:36;4.95;;;2.38;;
59830;SDS011;45711;50.108;13.712;2022-07-06T02:57:02;5.88;;;2.58;;
59830;SDS011;45711;50.108;13.712;2022-07-06T02:59:28;5.97;;;2.50;;
59830;SDS011;45711;50.108;13.712;2022-07-06T03:01:53;4.53;;;2.60;;
59830;SDS011;45711;50.108;13.712;2022-07-06T03:04:20;18.52;;;3.13;;
59830;SDS011;45711;50.108;13.712;2022-07-06T03:06:46;9.88;;;3.00;;
59830;SDS011;45711;50.108;13.712;2022-07-06T03:09:12;10.40;;;2.58;;
59830;SDS011;45711;50.108;13.712;2022-07-06T03:11:37;8.82;;;2.92;;
59830;SDS011;45711;50.108;13.712;2022-07-06T03:14:03;6.93;;;2.75;;
59830;SDS011;45711;50.108;13.712;2022-07-06T03:16:29;6.85;;;2.33;;
59830;SDS011;45711;50.108;13.712;2022-07-06T03:18:55;5.15;;;2.55;;
59830;SDS011;45711;50.108;13.712;2022-07-06T03:21:22;11.80;;;3.03;;
59830;SDS011;45711;50.108;13.712;2022-07-06T03:23:48;11.10;;;2.53;;
59830;SDS011;45711;50.108;13.712;2022-07-06T03:26:13;5.80;;;2.28;;
59830;SDS011;45711;50.108;13.712;2022-07-06T03:28:39;6.85;;;2.13;;
59830;SDS011;45711;50.108;13.712;2022-07-06T03:31:05;5.00;;;2.33;;
59830;SDS011;45711;50.108;13.712;2022-07-06T03:33:30;3.25;;;2.00;;
59830;SDS011;45711;50.108;13.712;2022-07-06T03:35:56;9.13;;;2.42;;
59830;SDS011;45711;50.108;13.712;2022-07-06T03:38:23;5.95;;;2.10;;
59830;SDS011;45711;50.108;13.712;2022-07-06T03:40:49;3.53;;;2.30;;
59830;SDS011;45711;50.108;13.712;2022-07-06T03:43:14;6.45;;;2.40;;
59830;SDS011;45711;50.108;13.712;2022-07-06T03:45:40;4.20;;;1.92;;
59830;SDS011;45711;50.108;13.712;2022-07-06T03:48:06;6.57;;;2.10;;
59830;SDS011;45711;50.108;13.712;2022-07-06T03:50:31;3.38;;;1.85;;
59830;SDS011;45711;50.108;13.712;2022-07-06T03:52:57;3.85;;;1.90;;
59830;SDS011;45711;50.108;13.712;2022-07-06T03:55:24;4.28;;;1.65;;
59830;SDS011;45711;50.108;13.712;2022-07-06T03:57:50;3.75;;;1.70;;
59830;SDS011;45711;50.108;13.712;2022-07-06T04:00:15;6.63;;;1.70;;
59830;SDS011;45711;50.108;13.712;2022-07-06T04:02:41;3.10;;;1.75;;
59830;SDS011;45711;50.108;13.712;2022-07-06T04:05:07;3.78;;;1.60;;
59830;SDS011;45711;50.108;13.712;2022-07-06T04:07:33;5.93;;;1.90;;
59830;SDS011;45711;50.108;13.712;2022-07-06T04:09:59;7.25;;;1.77;;
59830;SDS011;45711;50.108;13.712;2022-07-06T04:12:26;3.75;;;1.75;;
59830;SDS011;45711;50.108;13.712;2022-07-06T04:14:51;12.88;;;1.80;;
59830;SDS011;45711;50.108;13.712;2022-07-06T04:17:17;6.93;;;1.80;;
59830;SDS011;45711;50.108;13.712;2022-07-06T04:20:01;5.05;;;1.70;;
59830;SDS011;45711;50.108;13.712;2022-07-06T04:22:27;5.07;;;1.83;;
59830;SDS011;45711;50.108;13.712;2022-07-06T04:24:53;6.90;;;2.00;;
59830;SDS011;45711;50.108;13.712;2022-07-06T04:27:19;5.30;;;1.80;;
59830;SDS011;45711;50.108;13.712;2022-07-06T04:29:46;3.25;;;2.20;;
59830;SDS011;45711;50.108;13.712;2022-07-06T04:32:11;9.43;;;2.13;;
59830;SDS011;45711;50.108;13.712;2022-07-06T04:34:37;6.97;;;1.60;;
59830;SDS011;45711;50.108;13.712;2022-07-06T04:37:03;4.28;;;1.90;;
59830;SDS011;45711;50.108;13.712;2022-07-06T04:39:29;4.32;;;2.00;;
59830;SDS011;45711;50.108;13.712;2022-07-06T04:41:56;5.65;;;1.95;;
59830;SDS011;45711;50.108;13.712;2022-07-06T04:44:22;6.45;;;2.13;;
59830;SDS011;45711;50.108;13.712;2022-07-06T04:46:49;5.97;;;1.80;;
59830;SDS011;45711;50.108;13.712;2022-07-06T04:49:15;5.43;;;2.05;;
59830;SDS011;45711;50.108;13.712;2022-07-06T04:51:40;5.00;;;1.70;;
59830;SDS011;45711;50.108;13.712;2022-07-06T04:54:06;2.72;;;1.48;;
59830;SDS011;45711;50.108;13.712;2022-07-06T04:56:31;4.90;;;1.73;;
59830;SDS011;45711;50.108;13.712;2022-07-06T04:58:57;11.45;;;1.80;;
59830;SDS011;45711;50.108;13.712;2022-07-06T05:01:24;2.72;;;1.73;;
59830;SDS011;45711;50.108;13.712;2022-07-06T05:03:51;6.45;;;1.85;;
59830;SDS011;45711;50.108;13.712;2022-07-06T05:06:16;2.90;;;1.90;;
59830;SDS011;45711;50.108;13.712;2022-07-06T05:08:43;5.80;;;1.83;;
59830;SDS011;45711;50.108;13.712;2022-07-06T05:11:08;4.60;;;1.77;;
59830;SDS011;45711;50.108;13.712;2022-07-06T05:13:34;10.48;;;2.10;;
59830;SDS011;45711;50.108;13.712;2022-07-06T05:16:00;4.75;;;1.90;;
59830;SDS011;45711;50.108;13.712;2022-07-06T05:18:25;5.63;;;2.22;;
59830;SDS011;45711;50.108;13.712;2022-07-06T05:20:52;4.57;;;2.13;;
59830;SDS011;45711;50.108;13.712;2022-07-06T05:23:18;4.47;;;2.00;;
59830;SDS011;45711;50.108;13.712;2022-07-06T05:25:43;5.40;;;2.22;;
59830;SDS011;45711;50.108;13.712;2022-07-06T05:28:09;4.00;;;2.20;;
59830;SDS011;45711;50.108;13.712;2022-07-06T05:30:35;3.60;;;1.83;;
59830;SDS011;45711;50.108;13.712;2022-07-06T05:33:00;4.05;;;1.80;;
59830;SDS011;45711;50.108;13.712;2022-07-06T05:35:26;4.82;;;1.77;;
59830;SDS011;45711;50.108;13.712;2022-07-06T05:37:53;3.90;;;2.00;;
59830;SDS011;45711;50.108;13.712;2022-07-06T05:40:20;5.22;;;1.98;;
59830;SDS011;45711;50.108;13.712;2022-07-06T05:42:46;6.07;;;1.92;;
59830;SDS011;45711;50.108;13.712;2022-07-06T05:45:12;8.32;;;2.03;;
59830;SDS011;45711;50.108;13.712;2022-07-06T05:47:38;1.73;;;1.60;;
59830;SDS011;45711;50.108;13.712;2022-07-06T05:50:22;7.40;;;1.77;;
59830;SDS011;45711;50.108;13.712;2022-07-06T05:52:56;3.90;;;1.50;;
59830;SDS011;45711;50.108;13.712;2022-07-06T05:55:23;7.40;;;1.98;;
59830;SDS011;45711;50.108;13.712;2022-07-06T05:57:48;2.13;;;1.50;;
59830;SDS011;45711;50.108;13.712;2022-07-06T06:00:18;4.55;;;1.77;;
59830;SDS011;45711;50.108;13.712;2022-07-06T06:02:44;9.50;;;1.50;;
59830;SDS011;45711;50.108;13.712;2022-07-06T06:05:10;4.80;;;1.88;;
59830;SDS011;45711;50.108;13.712;2022-07-06T06:07:36;5.75;;;1.60;;
59830;SDS011;45711;50.108;13.712;2022-07-06T06:10:05;6.10;;;1.67;;
59830;SDS011;45711;50.108;13.712;2022-07-06T06:12:32;7.30;;;2.08;;
59830;SDS011;45711;50.108;13.712;2022-07-06T06:14:58;8.23;;;1.90;;
59830;SDS011;45711;50.108;13.712;2022-07-06T06:17:24;5.25;;;1.55;;
59830;SDS011;45711;50.108;13.712;2022-07-06T06:19:49;3.53;;;1.67;;
59830;SDS011;45711;50.108;13.712;2022-07-06T06:22:15;5.18;;;1.67;;
59830;SDS011;45711;50.108;13.712;2022-07-06T06:24:41;5.72;;;1.50;;
59830;SDS011;45711;50.108;13.712;2022-07-06T06:27:08;2.75;;;1.50;;
59830;SDS011;45711;50.108;13.712;2022-07-06T06:29:33;2.40;;;1.45;;
59830;SDS011;45711;50.108;13.712;2022-07-06T06:31:59;4.32;;;1.55;;
59830;SDS011;45711;50.108;13.712;2022-07-06T06:34:25;4.35;;;1.45;;
59830;SDS011;45711;50.108;13.712;2022-07-06T06:36:50;2.47;;;1.40;;
59830;SDS011;45711;50.108;13.712;2022-07-06T06:39:16;3.88;;;1.50;;
59830;SDS011;45711;50.108;13.712;2022-07-06T06:41:42;2.55;;;1.45;;
59830;SDS011;45711;50.108;13.712;2022-07-06T06:44:09;3.03;;;1.48;;
59830;SDS011;45711;50.108;13.712;2022-07-06T06:46:34;2.95;;;1.33;;
59830;SDS011;45711;50.108;13.712;2022-07-06T06:49:00;2.30;;;1.40;;
59830;SDS011;45711;50.108;13.712;2022-07-06T06:51:25;2.72;;;1.45;;
59830;SDS011;45711;50.108;13.712;2022-07-06T06:53:51;2.03;;;1.20;;
59830;SDS011;45711;50.108;13.712;2022-07-06T06:56:17;3.70;;;1.40;;
59830;SDS011;45711;50.108;13.712;2022-07-06T06:58:42;3.35;;;1.10;;
59830;SDS011;45711;50.108;13.712;2022-07-06T07:01:10;1.83;;;1.25;;
59830;SDS011;45711;50.108;13.712;2022-07-06T07:03:35;1.45;;;1.00;;
59830;SDS011;45711;50.108;13.712;2022-07-06T07:06:01;2.42;;;1.50;;
59830;SDS011;45711;50.108;13.712;2022-07-06T07:08:27;1.75;;;1.30;;
59830;SDS011;45711;50.108;13.712;2022-07-06T07:10:52;1.95;;;1.27;;
59830;SDS011;45711;50.108;13.712;2022-07-06T07:13:18;3.55;;;1.38;;
59830;SDS011;45711;50.108;13.712;2022-07-06T07:15:44;7.85;;;1.83;;
59830;SDS011;45711;50.108;13.712;2022-07-06T07:18:12;4.35;;;1.27;;
59830;SDS011;45711;50.108;13.712;2022-07-06T07:20:38;1.88;;;1.05;;
59830;SDS011;45711;50.108;13.712;2022-07-06T07:23:07;4.60;;;0.95;;
59830;SDS011;45711;50.108;13.712;2022-07-06T07:25:32;2.58;;;1.20;;
59830;SDS011;45711;50.108;13.712;2022-07-06T07:27:58;5.50;;;1.00;;
59830;SDS011;45711;50.108;13.712;2022-07-06T07:30:24;2.85;;;1.00;;
59830;SDS011;45711;50.108;13.712;2022-07-06T07:32:49;4.88;;;1.10;;
59830;SDS011;45711;50.108;13.712;2022-07-06T07:35:16;5.07;;;0.82;;
59830;SDS011;45711;50.108;13.712;2022-07-06T07:37:42;1.92;;;1.20;;
59830;SDS011;45711;50.108;13.712;2022-07-06T07:48:47;4.53;;;1.20;;
59830;SDS011;45711;50.108;13.712;2022-07-06T07:50:22;3.15;;;1.20;;
59830;SDS011;45711;50.108;13.712;2022-07-06T07:52:48;4.00;;;1.40;;
59830;SDS011;45711;50.108;13.712;2022-07-06T07:55:14;1.52;;;0.98;;
59830;SDS011;45711;50.108;13.712;2022-07-06T07:57:39;2.55;;;1.00;;
59830;SDS011;45711;50.108;13.712;2022-07-06T08:00:05;5.88;;;1.17;;
59830;SDS011;45711;50.108;13.712;2022-07-06T08:02:31;3.67;;;1.20;;
59830;SDS011;45711;50.108;13.712;2022-07-06T08:04:57;3.13;;;0.95;;
59830;SDS011;45711;50.108;13.712;2022-07-06T08:17:53;3.58;;;1.30;;
59830;SDS011;45711;50.108;13.712;2022-07-06T08:49:06;3.20;;;1.35;;
59830;SDS011;45711;50.108;13.712;2022-07-06T08:55:54;1.40;;;1.08;;
59830;SDS011;45711;50.108;13.712;2022-07-06T09:15:31;8.05;;;1.17;;
59830;SDS011;45711;50.108;13.712;2022-07-06T09:18:05;4.25;;;1.10;;
59830;SDS011;45711;50.108;13.712;2022-07-06T09:20:57;5.63;;;1.10;;
59830;SDS011;45711;50.108;13.712;2022-07-06T09:23:23;4.57;;;1.35;;
59830;SDS011;45711;50.108;13.712;2022-07-06T09:25:49;5.07;;;1.20;;
59830;SDS011;45711;50.108;13.712;2022-07-06T09:28:15;6.90;;;1.42;;
59830;SDS011;45711;50.108;13.712;2022-07-06T09:33:36;3.63;;;1.50;;
59830;SDS011;45711;50.108;13.712;2022-07-06T09:39:23;3.30;;;1.30;;
59830;SDS011;45711;50.108;13.712;2022-07-06T09:42:38;2.47;;;1.17;;
59830;SDS011;45711;50.108;13.712;2022-07-06T09:45:32;2.83;;;1.20;;
59830;SDS011;45711;50.108;13.712;2022-07-06T09:48:35;5.50;;;1.40;;
59830;SDS011;45711;50.108;13.712;2022-07-06T09:51:07;2.35;;;1.50;;
59830;SDS011;45711;50.108;13.712;2022-07-06T09:53:35;3.00;;;1.33;;
59830;SDS011;45711;50.108;13.712;2022-07-06T09:56:31;3.17;;;1.40;;
59830;SDS011;45711;50.108;13.712;2022-07-06T09:59:18;8.00;;;1.70;;
59830;SDS011;45711;50.108;13.712;2022-07-06T10:11:23;2.88;;;1.60;;
59830;SDS011;45711;50.108;13.712;2022-07-06T10:18:09;1.67;;;1.20;;
59830;SDS011;45711;50.108;13.712;2022-07-06T10:20:39;2.72;;;1.40;;
59830;SDS011;45711;50.108;13.712;2022-07-06T10:37:03;2.03;;;1.23;;
59830;SDS011;45711;50.108;13.712;2022-07-06T10:44:31;1.30;;;0.88;;
59830;SDS011;45711;50.108;13.712;2022-07-06T10:47:08;5.67;;;1.20;;
59830;SDS011;45711;50.108;13.712;2022-07-06T10:55:14;5.72;;;1.45;;
59830;SDS011;45711;50.108;13.712;2022-07-06T10:57:31;2.70;;;1.50;;
59830;SDS011;45711;50.108;13.712;2022-07-06T11:17:36;4.70;;;1.20;;
59830;SDS011;45711;50.108;13.712;2022-07-06T11:27:18;6.65;;;1.17;;
59830;SDS011;45711;50.108;13.712;2022-07-06T11:47:29;2.72;;;1.15;;
59830;SDS011;45711;50.108;13.712;2022-07-06T12:21:39;4.10;;;1.20;;
59830;SDS011;45711;50.108;13.712;2022-07-06T12:24:37;4.35;;;1.17;;
59830;SDS011;45711;50.108;13.712;2022-07-06T12:27:15;3.10;;;1.33;;
59830;SDS011;45711;50.108;13.712;2022-07-06T12:29:53;10.02;;;1.60;;
59830;SDS011;45711;50.108;13.712;2022-07-06T12:33:13;1.60;;;1.23;;
59830;SDS011;45711;50.108;13.712;2022-07-06T12:37:51;8.10;;;1.67;;
59830;SDS011;45711;50.108;13.712;2022-07-06T12:42:07;5.95;;;1.15;;
59830;SDS011;45711;50.108;13.712;2022-07-06T12:44:43;5.95;;;1.20;;
59830;SDS011;45711;50.108;13.712;2022-07-06T12:47:25;3.72;;;1.33;;
59830;SDS011;45711;50.108;13.712;2022-07-06T12:53:00;2.85;;;1.05;;
59830;SDS011;45711;50.108;13.712;2022-07-06T12:55:45;3.42;;;1.38;;
59830;SDS011;45711;50.108;13.712;2022-07-06T12:58:36;7.43;;;1.20;;
59830;SDS011;45711;50.108;13.712;2022-07-06T13:01:05;8.43;;;1.30;;
59830;SDS011;45711;50.108;13.712;2022-07-06T13:03:53;6.40;;;1.50;;
59830;SDS011;45711;50.108;13.712;2022-07-06T13:06:41;5.50;;;1.20;;
59830;SDS011;45711;50.108;13.712;2022-07-06T13:09:16;3.42;;;1.00;;
59830;SDS011;45711;50.108;13.712;2022-07-06T13:11:50;4.07;;;1.40;;
59830;SDS011;45711;50.108;13.712;2022-07-06T13:14:28;8.93;;;1.48;;
59830;SDS011;45711;50.108;13.712;2022-07-06T13:16:53;4.43;;;1.40;;
59830;SDS011;45711;50.108;13.712;2022-07-06T13:19:25;6.55;;;1.50;;
59830;SDS011;45711;50.108;13.712;2022-07-06T13:22:07;3.65;;;1.30;;
59830;SDS011;45711;50.108;13.712;2022-07-06T13:25:09;2.67;;;1.25;;
59830;SDS011;45711;50.108;13.712;2022-07-06T13:27:34;3.03;;;1.17;;
59830;SDS011;45711;50.108;13.712;2022-07-06T13:30:13;3.42;;;1.15;;
59830;SDS011;45711;50.108;13.712;2022-07-06T13:33:03;2.25;;;1.17;;
59830;SDS011;45711;50.108;13.712;2022-07-06T13:35:33;2.88;;;1.20;;
59830;SDS011;45711;50.108;13.712;2022-07-06T13:38:32;3.03;;;1.20;;
59830;SDS011;45711;50.108;13.712;2022-07-06T13:49:57;3.10;;;1.20;;
59830;SDS011;45711;50.108;13.712;2022-07-06T13:52:50;6.97;;;1.20;;
59830;SDS011;45711;50.108;13.712;2022-07-06T13:55:20;3.47;;;1.10;;
59830;SDS011;45711;50.108;13.712;2022-07-06T13:57:47;4.70;;;1.17;;
59830;SDS011;45711;50.108;13.712;2022-07-06T14:00:26;2.72;;;0.90;;
59830;SDS011;45711;50.108;13.712;2022-07-06T14:03:02;2.03;;;0.90;;
59830;SDS011;45711;50.108;13.712;2022-07-06T14:05:48;2.53;;;0.95;;
59830;SDS011;45711;50.108;13.712;2022-07-06T14:11:32;3.05;;;1.20;;
59830;SDS011;45711;50.108;13.712;2022-07-06T14:14:36;4.18;;;1.35;;
59830;SDS011;45711;50.108;13.712;2022-07-06T14:17:04;5.45;;;0.90;;
59830;SDS011;45711;50.108;13.712;2022-07-06T14:19:49;4.28;;;1.13;;
59830;SDS011;45711;50.108;13.712;2022-07-06T14:22:33;4.07;;;1.10;;
59830;SDS011;45711;50.108;13.712;2022-07-06T14:25:06;5.53;;;0.95;;
59830;SDS011;45711;50.108;13.712;2022-07-06T14:27:37;2.72;;;1.00;;
59830;SDS011;45711;50.108;13.712;2022-07-06T14:30:07;2.47;;;1.27;;
59830;SDS011;45711;50.108;13.712;2022-07-06T14:32:50;7.38;;;1.27;;
59830;SDS011;45711;50.108;13.712;2022-07-06T14:35:20;3.30;;;0.68;;
59830;SDS011;45711;50.108;13.712;2022-07-06T14:38:09;4.18;;;1.10;;
59830;SDS011;45711;50.108;13.712;2022-07-06T14:40:37;3.67;;;1.10;;
59830;SDS011;45711;50.108;13.712;2022-07-06T14:43:10;2.42;;;0.90;;
59830;SDS011;45711;50.108;13.712;2022-07-06T14:45:40;1.95;;;1.10;;
59830;SDS011;45711;50.108;13.712;2022-07-06T14:48:14;2.20;;;0.98;;
59830;SDS011;45711;50.108;13.712;2022-07-06T14:50:51;4.50;;;0.98;;
59830;SDS011;45711;50.108;13.712;2022-07-06T14:53:40;2.92;;;1.10;;
59830;SDS011;45711;50.108;13.712;2022-07-06T14:56:21;5.50;;;1.23;;
59830;SDS011;45711;50.108;13.712;2022-07-06T14:59:00;4.35;;;1.35;;
59830;SDS011;45711;50.108;13.712;2022-07-06T15:01:39;4.13;;;1.20;;
59830;SDS011;45711;50.108;13.712;2022-07-06T15:04:10;1.60;;;1.08;;
59830;SDS011;45711;50.108;13.712;2022-07-06T15:06:46;1.25;;;0.80;;
59830;SDS011;45711;50.108;13.712;2022-07-06T15:09:18;8.27;;;1.30;;
59830;SDS011;45711;50.108;13.712;2022-07-06T15:11:44;10.07;;;1.20;;
59830;SDS011;45711;50.108;13.712;2022-07-06T15:14:10;3.30;;;1.00;;
59830;SDS011;45711;50.108;13.712;2022-07-06T15:16:36;2.65;;;1.02;;
59830;SDS011;45711;50.108;13.712;2022-07-06T15:19:01;6.30;;;1.45;;
59830;SDS011;45711;50.108;13.712;2022-07-06T15:21:29;3.45;;;1.00;;
59830;SDS011;45711;50.108;13.712;2022-07-06T15:23:55;7.47;;;1.30;;
59830;SDS011;45711;50.108;13.712;2022-07-06T15:26:21;2.92;;;1.00;;
59830;SDS011;45711;50.108;13.712;2022-07-06T15:29:04;6.90;;;1.10;;
59830;SDS011;45711;50.108;13.712;2022-07-06T15:32:38;5.35;;;1.02;;
59830;SDS011;45711;50.108;13.712;2022-07-06T15:35:02;3.35;;;0.80;;
59830;SDS011;45711;50.108;13.712;2022-07-06T15:40:36;3.03;;;0.90;;
59830;SDS011;45711;50.108;13.712;2022-07-06T15:43:25;5.18;;;1.60;;
59830;SDS011;45711;50.108;13.712;2022-07-06T15:45:56;10.52;;;1.27;;
59830;SDS011;45711;50.108;13.712;2022-07-06T15:48:36;3.42;;;1.10;;
59830;SDS011;45711;50.108;13.712;2022-07-06T15:51:13;53.55;;;2.75;;
59830;SDS011;45711;50.108;13.712;2022-07-06T15:53:46;3.03;;;1.00;;
59830;SDS011;45711;50.108;13.712;2022-07-06T15:56:50;1.45;;;0.90;;
59830;SDS011;45711;50.108;13.712;2022-07-06T15:59:34;4.72;;;1.30;;
59830;SDS011;45711;50.108;13.712;2022-07-06T16:02:17;3.38;;;0.85;;
59830;SDS011;45711;50.108;13.712;2022-07-06T16:05:06;2.80;;;1.02;;
59830;SDS011;45711;50.108;13.712;2022-07-06T16:07:32;5.57;;;1.00;;
59830;SDS011;45711;50.108;13.712;2022-07-06T16:09:59;1.95;;;1.00;;
59830;SDS011;45711;50.108;13.712;2022-07-06T16:12:30;4.07;;;1.30;;
59830;SDS011;45711;50.108;13.712;2022-07-06T16:15:02;3.50;;;0.98;;
59830;SDS011;45711;50.108;13.712;2022-07-06T16:17:33;4.63;;;1.10;;
59830;SDS011;45711;50.108;13.712;2022-07-06T16:20:02;5.47;;;1.10;;
59830;SDS011;45711;50.108;13.712;2022-07-06T16:22:45;5.00;;;1.00;;
59830;SDS011;45711;50.108;13.712;2022-07-06T16:25:15;3.53;;;1.00;;
59830;SDS011;45711;50.108;13.712;2022-07-06T16:28:01;4.82;;;1.20;;
59830;SDS011;45711;50.108;13.712;2022-07-06T16:30:39;3.65;;;0.98;;
59830;SDS011;45711;50.108;13.712;2022-07-06T16:33:07;7.72;;;1.13;;
59830;SDS011;45711;50.108;13.712;2022-07-06T16:35:44;5.07;;;1.25;;
59830;SDS011;45711;50.108;13.712;2022-07-06T16:38:18;1.95;;;0.90;;
59830;SDS011;45711;50.108;13.712;2022-07-06T16:40:56;8.50;;;1.48;;
59830;SDS011;45711;50.108;13.712;2022-07-06T16:43:22;3.47;;;1.20;;
59830;SDS011;45711;50.108;13.712;2022-07-06T16:45:57;9.32;;;1.50;;
59830;SDS011;45711;50.108;13.712;2022-07-06T16:48:25;5.53;;;1.10;;
59830;SDS011;45711;50.108;13.712;2022-07-06T16:50:53;3.10;;;1.00;;
59830;SDS011;45711;50.108;13.712;2022-07-06T16:53:18;7.95;;;1.10;;
59830;SDS011;45711;50.108;13.712;2022-07-06T16:55:46;6.15;;;1.13;;
59830;SDS011;45711;50.108;13.712;2022-07-06T16:58:13;2.17;;;1.00;;
59830;SDS011;45711;50.108;13.712;2022-07-06T17:00:42;7.30;;;1.40;;
59830;SDS011;45711;50.108;13.712;2022-07-06T17:03:10;3.28;;;1.17;;
59830;SDS011;45711;50.108;13.712;2022-07-06T17:05:50;6.95;;;1.27;;
59830;SDS011;45711;50.108;13.712;2022-07-06T17:08:34;2.40;;;1.10;;
59830;SDS011;45711;50.108;13.712;2022-07-06T17:11:14;1.90;;;1.00;;
59830;SDS011;45711;50.108;13.712;2022-07-06T17:13:51;5.32;;;1.02;;
59830;SDS011;45711;50.108;13.712;2022-07-06T17:16:17;2.40;;;0.90;;
59830;SDS011;45711;50.108;13.712;2022-07-06T17:18:45;4.22;;;0.77;;
59830;SDS011;45711;50.108;13.712;2022-07-06T17:21:14;3.20;;;0.98;;
59830;SDS011;45711;50.108;13.712;2022-07-06T17:23:48;2.88;;;1.02;;
59830;SDS011;45711;50.108;13.712;2022-07-06T17:26:30;1.95;;;0.80;;
59830;SDS011;45711;50.108;13.712;2022-07-06T17:29:07;4.13;;;0.95;;
59830;SDS011;45711;50.108;13.712;2022-07-06T17:32:00;11.80;;;1.00;;
59830;SDS011;45711;50.108;13.712;2022-07-06T17:34:42;3.95;;;0.98;;
59830;SDS011;45711;50.108;13.712;2022-07-06T17:37:11;3.28;;;1.02;;
59830;SDS011;45711;50.108;13.712;2022-07-06T17:39:42;5.88;;;1.10;;
59830;SDS011;45711;50.108;13.712;2022-07-06T17:42:12;2.10;;;1.00;;
59830;SDS011;45711;50.108;13.712;2022-07-06T17:47:37;2.28;;;0.85;;
59830;SDS011;45711;50.108;13.712;2022-07-06T17:50:10;2.92;;;1.02;;
59830;SDS011;45711;50.108;13.712;2022-07-06T17:52:36;5.95;;;1.10;;
59830;SDS011;45711;50.108;13.712;2022-07-06T17:55:04;7.85;;;1.10;;
59830;SDS011;45711;50.108;13.712;2022-07-06T17:57:33;2.95;;;1.08;;
59830;SDS011;45711;50.108;13.712;2022-07-06T17:59:59;7.90;;;1.30;;
59830;SDS011;45711;50.108;13.712;2022-07-06T18:05:23;9.73;;;1.20;;
59830;SDS011;45711;50.108;13.712;2022-07-06T18:07:49;4.40;;;1.38;;
59830;SDS011;45711;50.108;13.712;2022-07-06T18:10:16;3.15;;;1.17;;
59830;SDS011;45711;50.108;13.712;2022-07-06T18:12:48;7.70;;;1.48;;
59830;SDS011;45711;50.108;13.712;2022-07-06T18:15:36;6.90;;;0.98;;
59830;SDS011;45711;50.108;13.712;2022-07-06T18:18:36;3.55;;;1.30;;
59830;SDS011;45711;50.108;13.712;2022-07-06T18:24:31;2.72;;;1.02;;
59830;SDS011;45711;50.108;13.712;2022-07-06T18:29:55;6.78;;;1.48;;
59830;SDS011;45711;50.108;13.712;2022-07-06T18:32:35;4.25;;;1.20;;
59830;SDS011;45711;50.108;13.712;2022-07-06T18:35:32;5.60;;;1.33;;